Time;durP1;ratioP1;P1;durP2;ratioP2;P2;SDS_P1;SDS_P2;PMS_P1;PMS_P2;Temp;Humidity;BMP_temperature;BMP_pressure;BME280_temperature;BME280_humidity;BME280_pressure;Samples;Min_cycle;Max_cycle;Signal;HPM_P1;HPM_P2
2023/10/08 00:00:43;;;;;;;1.67;1.43;;;;;;;16.91;50.76;99686.44;5092125;28;20590;-70
2023/10/08 00:03:10;;;;;;;1.33;1.30;;;;;;;16.90;51.71;99684.75;5092166;28;20278;-70
2023/10/08 00:05:37;;;;;;;1.50;1.50;;;;;;;16.92;51.90;99687.28;5092071;28;20203;-70
2023/10/08 00:08:05;;;;;;;2.10;1.50;;;;;;;16.88;52.68;99676.25;5092033;28;20230;-70
2023/10/08 00:10:36;;;;;;;3.20;1.90;;;;;;;16.69;53.14;99654.81;5091747;28;20298;-70
2023/10/08 00:13:07;;;;;;;2.60;1.20;;;;;;;16.81;53.32;99674.88;5090842;28;20192;-70
2023/10/08 00:15:36;;;;;;;1.80;1.70;;;;;;;16.63;53.74;99647.34;5091792;28;20191;-70
2023/10/08 00:18:04;;;;;;;1.07;1.07;;;;;;;16.69;54.18;99670.34;5091714;28;20207;-70
2023/10/08 00:20:35;;;;;;;1.63;1.63;;;;;;;16.64;54.74;99662.78;5091670;28;20698;-70
2023/10/08 00:23:07;;;;;;;1.47;1.37;;;;;;;16.66;54.77;99671.34;5091337;28;20285;-70
2023/10/08 00:25:40;;;;;;;4.43;1.60;;;;;;;16.64;54.62;99673.16;5091634;28;20204;-70
2023/10/08 00:28:13;;;;;;;1.33;1.33;;;;;;;16.64;55.02;99673.16;5091293;28;20206;-70
2023/10/08 00:30:41;;;;;;;1.73;1.63;;;;;;;16.62;54.80;99669.81;5091554;28;20226;-70
2023/10/08 00:33:09;;;;;;;2.73;1.57;;;;;;;16.60;54.87;99666.47;5091487;28;20235;-70
2023/10/08 00:35:41;;;;;;;1.77;1.33;;;;;;;16.59;55.38;99663.94;5091146;28;20244;-71
2023/10/08 00:38:14;;;;;;;1.60;1.50;;;;;;;16.56;55.18;99659.78;5091053;28;20234;-70
2023/10/08 00:40:45;;;;;;;4.93;1.90;;;;;;;16.61;55.45;99668.13;5091601;28;20195;-70
2023/10/08 00:43:31;;;;;;;5.70;1.80;;;;;;;16.60;55.34;99666.47;5091144;28;20195;-70
2023/10/08 00:45:59;;;;;;;2.10;1.57;;;;;;;16.54;55.46;99666.72;5091424;28;20655;-70
2023/10/08 00:48:28;;;;;;;3.37;2.07;;;;;;;16.50;55.16;99662.63;5091470;28;20226;-70
2023/10/08 00:51:08;;;;;;;1.80;1.70;;;;;;;16.48;55.25;99655.88;5091127;28;20310;-70
2023/10/08 00:53:39;;;;;;;2.23;2.13;;;;;;;16.44;54.85;99650.00;5091118;28;20199;-70
2023/10/08 00:56:13;;;;;;;7.27;2.30;;;;;;;16.37;55.38;99651.22;5091072;28;20198;-70
2023/10/08 00:58:45;;;;;;;3.03;1.90;;;;;;;16.33;55.48;99649.69;5091426;28;20212;-70
2023/10/08 01:01:16;;;;;;;2.23;1.97;;;;;;;16.26;56.00;99651.75;5090719;28;20207;-70
2023/10/08 01:03:44;;;;;;;5.10;2.13;;;;;;;16.21;56.07;99645.13;5091196;28;20206;-70
2023/10/08 01:06:12;;;;;;;5.50;1.60;;;;;;;16.08;56.94;99647.50;5091028;28;20278;-70
2023/10/08 01:08:47;;;;;;;2.73;2.53;;;;;;;15.98;57.39;99635.06;5091158;28;20231;-70
2023/10/08 01:11:25;;;;;;;2.27;2.17;;;;;;;15.82;58.43;99634.13;5090803;28;20582;-70
2023/10/08 01:13:55;;;;;;;3.10;2.03;;;;;;;15.67;58.72;99626.19;5090649;28;20205;-70
2023/10/08 01:16:22;;;;;;;3.80;2.63;;;;;;;15.72;58.69;99628.56;5090857;28;20195;-70
2023/10/08 01:18:54;;;;;;;3.43;3.13;;;;;;;15.66;58.70;99634.88;5090701;28;20206;-70
2023/10/08 01:21:33;;;;;;;8.07;1.97;;;;;;;15.64;58.87;99626.31;5088590;28;20238;-70
2023/10/08 01:24:05;;;;;;;3.53;2.70;;;;;;;15.45;58.73;99615.16;5090441;28;20289;-70
2023/10/08 01:26:32;;;;;;;5.03;2.53;;;;;;;15.48;59.11;99620.19;5090636;28;20249;-70
2023/10/08 01:29:03;;;;;;;2.20;2.00;;;;;;;15.46;59.19;99627.16;5090507;28;20692;-70
2023/10/08 01:31:31;;;;;;;2.30;2.20;;;;;;;15.42;59.36;99620.47;5090854;28;20701;-70
2023/10/08 01:33:58;;;;;;;3.30;2.30;;;;;;;15.43;59.49;99622.13;5090510;28;20290;-70
2023/10/08 01:36:25;;;;;;;2.23;2.03;;;;;;;15.44;59.88;99623.81;5088195;28;20198;-70
2023/10/08 01:38:54;;;;;;;4.13;3.37;;;;;;;15.50;59.92;99617.56;5090477;28;20584;-70
2023/10/08 01:41:29;;;;;;;1.80;1.70;;;;;;;15.54;59.84;99614.75;5090627;28;20202;-70
2023/10/08 01:43:57;;;;;;;2.37;2.27;;;;;;;15.49;59.79;99596.03;5089420;28;20206;-70
2023/10/08 01:46:27;;;;;;;1.70;1.70;;;;;;;15.61;59.76;99605.78;5090430;28;20882;-70
2023/10/08 01:49:00;;;;;;;1.73;1.63;;;;;;;15.62;59.59;99604.91;5090462;28;20629;-70
2023/10/08 01:51:36;;;;;;;4.23;2.40;;;;;;;15.63;59.67;99604.00;5089491;28;20242;-70
2023/10/08 01:54:09;;;;;;;2.07;1.97;;;;;;;15.61;59.25;99600.63;5089611;28;20781;-70
2023/10/08 01:56:41;;;;;;;3.33;2.43;;;;;;;15.52;60.06;99590.72;5089881;28;20247;-69
2023/10/08 01:59:09;;;;;;;3.07;1.50;;;;;;;15.29;60.99;99593.50;5090029;28;20195;-70
2023/10/08 02:01:36;;;;;;;1.87;1.77;;;;;;;15.19;61.00;99593.09;5090486;28;20195;-70
2023/10/08 02:04:04;;;;;;;3.87;1.87;;;;;;;15.10;61.36;99592.69;5090702;28;20793;-70
2023/10/08 02:06:31;;;;;;;2.10;2.00;;;;;;;14.92;61.87;99594.38;5089812;28;20202;-70
2023/10/08 02:08:58;;;;;;;1.63;1.53;;;;;;;14.66;62.50;99567.13;5089335;28;20193;-70
2023/10/08 02:11:27;;;;;;;2.93;1.73;;;;;;;14.85;62.65;99598.13;5089754;28;20215;-70
2023/10/08 02:13:55;;;;;;;2.37;2.17;;;;;;;14.87;62.25;99590.28;5090149;28;20640;-70
2023/10/08 02:16:22;;;;;;;2.53;1.33;;;;;;;14.89;62.73;99598.81;5090483;28;20691;-70
2023/10/08 02:18:51;;;;;;;4.43;2.23;;;;;;;14.88;62.13;99592.81;5090073;28;20287;-70
2023/10/08 02:21:18;;;;;;;2.27;2.17;;;;;;;14.93;62.01;99584.84;5090333;28;20204;-70
2023/10/08 02:23:44;;;;;;;7.80;2.07;;;;;;;14.99;60.93;99585.41;5090332;28;20197;-69
2023/10/08 02:26:12;;;;;;;4.73;3.27;;;;;;;15.04;60.57;99577.47;5089925;28;20212;-70
2023/10/08 02:28:38;;;;;;;7.43;4.97;;;;;;;15.06;59.68;99571.31;5090071;28;20199;-69
2023/10/08 02:31:08;;;;;;;5.60;5.17;;;;;;;15.05;59.26;99568.84;5089744;28;20213;-70
2023/10/08 02:33:35;;;;;;;5.77;4.53;;;;;;;15.03;59.33;99560.28;5089965;28;20191;-69
2023/10/08 02:36:04;;;;;;;10.73;6.33;;;;;;;15.02;58.91;99558.66;5092358;28;20620;-69
2023/10/08 02:38:37;;;;;;;24.37;8.80;;;;;;;15.11;59.60;99571.13;5093404;28;20242;-69
2023/10/08 02:41:06;;;;;;;17.03;7.63;;;;;;;15.13;59.47;99566.72;5093532;28;20227;-69
2023/10/08 02:43:34;;;;;;;20.30;9.70;;;;;;;15.12;59.79;99570.22;5093874;28;20682;-69
2023/10/08 02:46:00;;;;;;;13.57;8.00;;;;;;;15.09;60.15;99562.59;5093370;28;20693;-69
2023/10/08 02:48:29;;;;;;;15.20;6.40;;;;;;;15.12;60.13;99560.72;5093623;28;20203;-69
2023/10/08 02:51:06;;;;;;;6.00;4.10;;;;;;;15.19;60.57;99558.69;5093137;28;20218;-69
2023/10/08 02:53:34;;;;;;;6.23;2.07;;;;;;;15.29;60.19;99552.19;5093490;28;20710;-69
2023/10/08 02:56:01;;;;;;;3.30;2.67;;;;;;;15.35;60.48;99551.91;5090818;28;20191;-69
2023/10/08 02:58:30;;;;;;;3.97;2.47;;;;;;;15.42;60.45;99542.94;5093491;28;20575;-69
2023/10/08 03:00:57;;;;;;;4.70;1.73;;;;;;;15.50;60.69;99551.22;5093488;28;20653;-69
2023/10/08 03:03:24;;;;;;;5.80;2.13;;;;;;;15.61;59.61;99548.94;5093429;28;20207;-69
2023/10/08 03:05:56;;;;;;;2.23;2.10;;;;;;;15.68;58.81;99550.31;5093299;28;20649;-69
2023/10/08 03:08:23;;;;;;;5.63;1.70;;;;;;;15.64;59.01;99525.53;5093365;28;20276;-69
2023/10/08 03:10:55;;;;;;;3.80;2.47;;;;;;;15.80;58.03;99548.06;5092844;28;20694;-69
2023/10/08 03:13:22;;;;;;;9.87;2.17;;;;;;;15.88;56.84;99545.94;5092812;28;20288;-69
2023/10/08 03:16:07;;;;;;;2.37;2.23;;;;;;;15.96;56.41;99543.81;5092855;28;20686;-69
2023/10/08 03:18:36;;;;;;;1.97;1.87;;;;;;;16.05;55.67;99544.19;5092943;28;20227;-69
2023/10/08 03:21:05;;;;;;;4.07;2.87;;;;;;;16.08;55.49;99546.63;5092529;28;20310;-69
2023/10/08 03:23:34;;;;;;;5.50;2.73;;;;;;;16.17;54.99;99547.91;5092982;28;20555;-69
2023/10/08 03:26:10;;;;;;;3.73;2.27;;;;;;;16.25;54.41;99551.75;5092780;28;20669;-69
2023/10/08 03:28:37;;;;;;;3.17;2.03;;;;;;;16.27;53.67;99543.94;5093078;28;20198;-69
2023/10/08 03:31:05;;;;;;;3.20;2.80;;;;;;;16.38;53.62;99557.13;5092775;28;20229;-69
2023/10/08 03:33:34;;;;;;;2.23;2.13;;;;;;;16.26;53.80;99537.09;5092730;28;20223;-70
2023/10/08 03:36:08;;;;;;;12.63;2.33;;;;;;;16.42;53.40;99550.91;5092527;28;20223;-69
2023/10/08 03:38:50;;;;;;;2.50;2.27;;;;;;;16.42;53.30;99548.31;5092705;28;20807;-69
2023/10/08 03:41:20;;;;;;;3.30;3.00;;;;;;;16.49;52.79;99560.03;5092737;28;20580;-69
2023/10/08 03:43:52;;;;;;;4.57;2.63;;;;;;;16.51;52.57;99553.00;5089375;28;20586;-69
2023/10/08 03:46:23;;;;;;;2.00;1.70;;;;;;;16.51;52.87;99547.84;5088862;28;20278;-69
2023/10/08 03:48:51;;;;;;;2.90;2.43;;;;;;;16.59;52.22;99548.31;5089243;28;20674;-70
2023/10/08 03:51:20;;;;;;;3.73;3.00;;;;;;;16.68;52.34;99555.59;5091465;28;20279;-70
2023/10/08 03:54:15;;;;;;;7.40;3.87;;;;;;;16.71;51.76;99550.25;5091772;28;20814;-70
2023/10/08 03:56:46;;;;;;;3.10;2.70;;;;;;;16.72;52.95;99545.91;5091064;28;20207;-71
2023/10/08 03:59:14;;;;;;;6.30;2.37;;;;;;;16.64;52.40;99538.53;5090969;28;20674;-70
2023/10/08 04:01:41;;;;;;;2.00;1.87;;;;;;;16.67;52.27;99538.38;5091071;28;20195;-70
2023/10/08 04:04:12;;;;;;;6.53;2.37;;;;;;;16.70;52.92;99540.81;5091684;28;20614;-72
2023/10/08 04:06:47;;;;;;;2.30;2.17;;;;;;;16.73;51.82;99540.69;5091203;28;20211;-71
2023/10/08 04:09:23;;;;;;;5.70;2.17;;;;;;;16.78;51.05;99546.44;5091777;28;20233;-70
2023/10/08 04:11:55;;;;;;;2.50;1.73;;;;;;;16.78;51.35;99546.44;5091294;28;20211;-70
2023/10/08 04:14:23;;;;;;;5.37;1.87;;;;;;;16.70;52.11;99533.03;5091295;28;20192;-70
2023/10/08 04:16:51;;;;;;;4.10;2.07;;;;;;;16.64;51.87;99523.00;5090337;28;20352;-70
2023/10/08 04:19:19;;;;;;;2.40;2.30;;;;;;;16.69;51.39;99536.56;5091607;28;20624;-70
2023/10/08 04:21:53;;;;;;;2.10;1.20;;;;;;;16.76;51.79;99537.91;5091531;28;20572;-71
2023/10/08 04:24:29;;;;;;;3.20;2.07;;;;;;;16.87;51.03;99562.38;5091693;28;20220;-71
2023/10/08 04:27:02;;;;;;;1.47;1.40;;;;;;;16.84;50.89;99544.41;5090915;28;20696;-70
2023/10/08 04:29:32;;;;;;;3.90;2.00;;;;;;;16.87;50.68;99541.66;5091704;28;20667;-70
2023/10/08 04:32:07;;;;;;;5.00;1.97;;;;;;;16.92;50.12;99544.88;5090195;28;20216;-70
2023/10/08 04:34:35;;;;;;;1.27;1.27;;;;;;;16.98;50.25;99536.75;5091153;28;20195;-69
2023/10/08 04:37:03;;;;;;;3.53;1.83;;;;;;;17.02;50.54;99548.63;5091275;28;20279;-70
2023/10/08 04:39:35;;;;;;;1.47;1.37;;;;;;;17.00;50.35;99545.28;5091490;28;20239;-71
2023/10/08 04:42:07;;;;;;;2.10;1.90;;;;;;;17.06;49.65;99550.16;5091284;28;20194;-70
2023/10/08 04:44:34;;;;;;;3.20;1.20;;;;;;;17.10;49.06;99556.81;5091324;28;20196;-71
2023/10/08 04:47:06;;;;;;;2.40;2.23;;;;;;;17.09;49.31;99555.97;5090887;28;20666;-70
2023/10/08 04:49:34;;;;;;;1.03;1.03;;;;;;;17.10;49.23;99562.00;5091507;28;20638;-70
2023/10/08 04:52:05;;;;;;;1.50;1.50;;;;;;;17.06;49.63;99563.91;5091164;28;20780;-70
2023/10/08 04:54:33;;;;;;;1.30;1.20;;;;;;;16.98;49.78;99560.06;5090752;28;20702;-70
2023/10/08 04:57:01;;;;;;;1.27;1.23;;;;;;;17.06;49.89;99571.69;5091142;28;20203;-70
2023/10/08 04:59:33;;;;;;;1.47;1.43;;;;;;;17.08;49.55;99574.19;5090581;28;20191;-70
2023/10/08 05:02:19;;;;;;;1.57;1.47;;;;;;;17.06;49.55;99571.69;5091062;28;20200;-70
2023/10/08 05:04:56;;;;;;;2.30;1.40;;;;;;;17.06;49.44;99576.06;5089894;28;20214;-70
2023/10/08 05:07:40;;;;;;;5.03;1.83;;;;;;;17.04;50.19;99577.88;5089437;28;20210;-70
2023/10/08 05:10:29;;;;;;;6.00;2.80;;;;;;;17.04;49.60;99570.09;5087285;28;20199;-70
2023/10/08 05:13:15;;;;;;;7.20;4.93;;;;;;;17.04;50.46;99578.72;5089020;28;20300;-71
2023/10/08 05:15:50;;;;;;;9.60;5.93;;;;;;;17.03;49.90;99576.19;5090101;28;20206;-71
2023/10/08 05:18:23;;;;;;;21.73;8.77;;;;;;;17.03;49.98;99571.00;5089664;28;20206;-71
2023/10/08 05:21:16;;;;;;;18.40;8.67;;;;;;;17.07;50.63;99562.16;5086785;28;20288;-70
2023/10/08 05:24:08;;;;;;;31.03;12.30;;;;;;;17.08;49.19;99563.84;5088293;28;20207;-70
2023/10/08 05:26:41;;;;;;;19.40;9.03;;;;;;;17.17;49.42;99552.97;5089346;28;20277;-70
2023/10/08 05:32:17;;;;;;;17.03;7.27;;;;;;;17.30;49.15;99548.78;5088565;28;20261;-71
2023/10/08 05:34:42;;;;;;;20.10;8.37;;;;;;;17.39;49.10;99548.28;5086973;28;20195;-70
2023/10/08 05:37:31;;;;;;;13.63;6.10;;;;;;;17.46;48.58;99549.59;5089028;28;20213;-70
2023/10/08 05:40:12;;;;;;;11.37;6.53;;;;;;;17.58;48.74;99556.72;5082477;28;20208;-71
2023/10/08 05:42:46;;;;;;;15.67;6.37;;;;;;;17.61;49.18;99555.75;5087721;28;20617;-71
2023/10/08 05:45:29;;;;;;;13.20;5.63;;;;;;;17.64;48.73;99558.97;5088517;28;21094;-71
2023/10/08 05:48:13;;;;;;;6.07;5.27;;;;;;;17.61;48.52;99551.38;5087927;28;20290;-70
2023/10/08 05:50:42;;;;;;;9.80;5.07;;;;;;;17.72;48.97;99561.97;5087860;28;20222;-69
2023/10/08 05:53:29;;;;;;;8.33;5.53;;;;;;;17.78;48.50;99566.81;5085894;28;20212;-67
2023/10/08 05:56:16;;;;;;;5.70;3.63;;;;;;;17.82;48.35;99557.94;5085708;28;20203;-69
2023/10/08 05:59:00;;;;;;;7.63;2.80;;;;;;;18.00;47.68;99568.16;5088101;28;20236;-69
2023/10/08 06:01:39;;;;;;;4.07;3.80;;;;;;;18.09;46.31;99575.44;5087966;28;20196;-69
2023/10/08 06:04:20;;;;;;;2.83;2.60;;;;;;;18.27;45.05;99579.53;5089826;28;20294;-70
2023/10/08 06:06:57;;;;;;;2.77;2.57;;;;;;;18.39;44.63;99578.81;5089052;28;20204;-70
2023/10/08 06:09:35;;;;;;;5.20;3.47;;;;;;;18.52;44.68;99569.41;5089995;28;20199;-69
2023/10/08 06:12:09;;;;;;;2.20;2.00;;;;;;;18.74;43.05;99580.16;5093959;28;20215;-71
2023/10/08 06:14:52;;;;;;;2.47;2.03;;;;;;;18.83;43.46;99579.63;5093552;28;20202;-71
2023/10/08 06:17:55;;;;;;;1.87;1.50;;;;;;;18.97;42.64;99576.16;5093385;28;20664;-70
2023/10/08 06:20:25;;;;;;;4.53;2.10;;;;;;;19.12;43.24;99569.19;5090214;28;20245;-71
2023/10/08 06:22:59;;;;;;;1.97;1.87;;;;;;;19.21;43.13;99568.63;5093955;28;20196;-70
2023/10/08 06:25:27;;;;;;;3.23;2.20;;;;;;;19.45;42.00;99571.47;5093636;28;20240;-70
2023/10/08 06:27:55;;;;;;;5.43;2.27;;;;;;;19.60;42.92;99565.28;5093299;28;20200;-71
2023/10/08 06:30:28;;;;;;;2.37;1.90;;;;;;;19.79;40.78;99561.41;5093065;28;20304;-69
2023/10/08 06:32:56;;;;;;;3.23;2.30;;;;;;;19.84;41.21;99537.66;5092369;28;20289;-75
2023/10/08 06:35:25;;;;;;;2.50;1.87;;;;;;;20.12;40.58;99555.75;5093378;28;20209;-74
2023/10/08 06:37:55;;;;;;;3.57;1.83;;;;;;;20.23;40.10;99555.84;5092288;28;20746;-73
2023/10/08 06:40:42;;;;;;;1.20;1.10;;;;;;;20.38;39.84;99554.84;5092600;28;20575;-71
2023/10/08 06:43:14;;;;;;;1.13;1.13;;;;;;;20.58;39.80;99550.88;5092967;28;20199;-74
2023/10/08 06:45:44;;;;;;;5.27;1.80;;;;;;;20.73;39.42;99555.03;5093334;28;20205;-74
2023/10/08 06:48:17;;;;;;;3.63;1.60;;;;;;;20.84;40.52;99549.09;5092082;28;20235;-74
2023/10/08 06:50:45;;;;;;;1.23;1.23;;;;;;;21.03;39.58;99552.06;5090656;28;20215;-74
2023/10/08 06:53:13;;;;;;;1.17;1.17;;;;;;;21.22;38.99;99541.19;5091814;28;20201;-70
2023/10/08 06:55:41;;;;;;;1.57;1.47;;;;;;;21.41;39.36;99547.59;5089798;28;20203;-74
2023/10/08 06:58:09;;;;;;;1.47;1.10;;;;;;;21.56;38.90;99545.63;5091257;28;20559;-75
2023/10/08 07:00:46;;;;;;;1.53;1.43;;;;;;;21.65;38.67;99538.94;5092831;28;20206;-74
2023/10/08 07:03:16;;;;;;;3.20;0.93;;;;;;;21.91;37.93;99546.50;5090612;28;20230;-74
2023/10/08 07:05:44;;;;;;;2.97;1.20;;;;;;;22.14;38.34;99551.78;5092755;28;20223;-74
2023/10/08 07:08:13;;;;;;;1.47;1.13;;;;;;;22.28;38.27;99539.38;5092936;28;20253;-75
2023/10/08 07:10:42;;;;;;;1.80;1.40;;;;;;;22.49;37.54;99537.72;5091928;28;20207;-74
2023/10/08 07:13:10;;;;;;;1.60;1.33;;;;;;;22.69;36.79;99546.66;5092525;28;20238;-75
2023/10/08 07:15:40;;;;;;;1.37;1.27;;;;;;;22.86;36.80;99525.28;5092138;28;20204;-74
2023/10/08 07:18:12;;;;;;;1.63;1.53;;;;;;;23.04;36.34;99536.06;5092328;28;20210;-72
2023/10/08 07:20:45;;;;;;;1.57;1.47;;;;;;;23.18;35.88;99533.19;5091147;28;20231;-73
2023/10/08 07:23:19;;;;;;;1.37;0.90;;;;;;;23.35;36.00;99537.06;5091557;28;20203;-74
2023/10/08 07:25:57;;;;;;;3.70;1.10;;;;;;;23.52;35.75;99531.34;5092019;28;20235;-74
2023/10/08 07:28:25;;;;;;;1.27;1.27;;;;;;;23.59;35.77;99508.94;5092512;28;20256;-74
2023/10/08 07:30:52;;;;;;;2.40;1.23;;;;;;;23.74;34.89;99528.63;5091808;28;20695;-74
2023/10/08 07:33:19;;;;;;;1.47;0.97;;;;;;;23.93;35.87;99523.53;5092568;28;20202;-74
2023/10/08 07:35:57;;;;;;;1.57;1.00;;;;;;;24.09;34.80;99524.88;5088767;28;20203;-74
2023/10/08 07:38:27;;;;;;;4.55;1.33;;;;;;;24.22;33.27;99522.91;5090695;28;20497;-74
2023/10/08 07:40:55;;;;;;;1.90;0.95;;;;;;;24.41;33.97;99517.75;5087719;28;20472;-72
2023/10/08 07:43:22;;;;;;;0.70;0.70;;;;;;;24.63;33.59;99514.97;5090464;28;20203;-70
2023/10/08 07:45:49;;;;;;;0.90;0.90;;;;;;;24.51;33.02;99487.19;5087718;28;20206;-70
2023/10/08 07:48:16;;;;;;;9.53;0.93;;;;;;;24.77;33.28;99514.59;5089803;28;20206;-70
2023/10/08 07:50:45;;;;;;;4.97;1.13;;;;;;;24.89;33.10;99516.19;5089155;28;20286;-71
2023/10/08 07:53:18;;;;;;;1.60;1.50;;;;;;;25.08;32.19;99524.09;5089834;28;20199;-70
2023/10/08 07:55:48;;;;;;;1.13;0.70;;;;;;;25.19;32.42;99498.72;5089894;28;20701;-70
2023/10/08 07:58:16;;;;;;;1.47;1.33;;;;;;;25.40;31.56;99509.91;5090988;28;20204;-71
2023/10/08 08:00:51;;;;;;;1.03;1.03;;;;;;;25.49;31.43;99509.09;5092064;28;20207;-70
2023/10/08 08:03:21;;;;;;;0.97;0.87;;;;;;;25.62;31.09;99507.06;5092113;28;20199;-71
2023/10/08 08:05:52;;;;;;;0.80;0.80;;;;;;;25.75;30.87;99504.16;5086916;28;20199;-72
2023/10/08 08:08:22;;;;;;;1.20;1.10;;;;;;;25.86;31.51;99493.47;5085619;28;20207;-71
2023/10/08 08:10:57;;;;;;;0.80;0.73;;;;;;;25.92;31.07;99499.00;5092005;28;20211;-72
2023/10/08 08:13:27;;;;;;;0.77;0.77;;;;;;;25.96;29.99;99483.78;5091908;28;20374;-71
2023/10/08 08:15:58;;;;;;;0.90;0.80;;;;;;;26.16;29.99;99495.09;5092281;28;20295;-70
2023/10/08 08:18:32;;;;;;;1.30;1.20;;;;;;;26.30;29.25;99498.09;5091959;28;20587;-71
2023/10/08 08:21:02;;;;;;;2.70;1.07;;;;;;;26.49;29.77;99500.69;5091362;28;20229;-71
2023/10/08 08:23:31;;;;;;;2.53;0.77;;;;;;;26.69;29.61;99487.44;5091406;28;20261;-73
2023/10/08 08:26:11;;;;;;;1.23;0.80;;;;;;;26.81;29.08;99497.66;5085781;28;20691;-69
2023/10/08 08:28:40;;;;;;;1.67;1.20;;;;;;;26.84;28.56;99475.47;5089519;28;20199;-71
2023/10/08 08:31:13;;;;;;;0.77;0.77;;;;;;;26.96;28.33;99480.38;5091957;28;20196;-70
2023/10/08 08:33:53;;;;;;;0.70;0.70;;;;;;;27.02;30.22;99479.78;5090518;28;20290;-71
2023/10/08 08:36:21;;;;;;;3.57;1.10;;;;;;;27.11;28.00;99484.16;5091856;28;20196;-71
2023/10/08 08:38:49;;;;;;;1.00;0.77;;;;;;;27.27;28.55;99480.03;5089973;28;20242;-73
2023/10/08 08:41:18;;;;;;;3.83;0.77;;;;;;;27.43;28.05;99472.31;5091882;28;20677;-71
2023/10/08 08:43:49;;;;;;;1.77;1.07;;;;;;;27.41;27.56;99463.69;5090198;28;20282;-71
2023/10/08 08:46:16;;;;;;;1.47;0.80;;;;;;;27.42;27.76;99465.38;5091623;28;20253;-70
2023/10/08 08:48:45;;;;;;;2.97;1.03;;;;;;;27.47;28.28;99474.50;5085737;28;20199;-71
2023/10/08 08:51:13;;;;;;;4.60;0.87;;;;;;;27.64;27.56;99465.75;5091030;28;20257;-69
2023/10/08 08:53:41;;;;;;;4.20;0.97;;;;;;;27.77;27.69;99459.25;5090896;28;20204;-71
2023/10/08 08:56:10;;;;;;;0.60;0.60;;;;;;;27.79;28.38;99465.22;5091058;28;20276;-72
2023/10/08 08:58:38;;;;;;;2.67;0.60;;;;;;;27.85;27.78;99449.59;5091281;28;20199;-71
2023/10/08 09:01:09;;;;;;;0.70;0.70;;;;;;;28.11;28.15;99466.25;5091136;28;20238;-71
2023/10/08 09:03:37;;;;;;;9.47;0.70;;;;;;;27.99;27.20;99461.38;5091173;28;20679;-73
2023/10/08 09:06:04;;;;;;;1.23;0.63;;;;;;;27.89;27.30;99443.03;5091183;28;20195;-70
2023/10/08 09:08:34;;;;;;;1.90;0.70;;;;;;;27.91;27.13;99451.63;5091204;28;20718;-73
2023/10/08 09:11:04;;;;;;;0.73;0.73;;;;;;;27.90;27.98;99449.97;5090994;28;20202;-71
2023/10/08 09:13:33;;;;;;;1.30;0.90;;;;;;;27.99;28.79;99442.91;5091106;28;20236;-70
2023/10/08 09:16:08;;;;;;;0.80;0.80;;;;;;;28.08;28.54;99442.00;5091196;28;20702;-69
2023/10/08 09:18:35;;;;;;;0.97;0.97;;;;;;;28.11;28.18;99431.97;5091391;28;20206;-70
2023/10/08 09:21:11;;;;;;;5.87;0.70;;;;;;;28.27;28.35;99431.25;5090818;28;20214;-69
2023/10/08 09:23:43;;;;;;;0.80;0.80;;;;;;;28.30;27.27;99427.47;5091130;28;20691;-70
2023/10/08 09:26:10;;;;;;;2.13;0.93;;;;;;;28.35;27.73;99422.53;5090910;28;20231;-70
2023/10/08 09:28:40;;;;;;;0.67;0.50;;;;;;;28.36;28.53;99429.47;5090901;28;20199;-72
2023/10/08 09:31:11;;;;;;;3.30;0.93;;;;;;;28.39;27.66;99429.16;5090802;28;20210;-71
2023/10/08 09:33:38;;;;;;;0.60;0.60;;;;;;;28.41;27.56;99421.91;5090866;28;20219;-70
2023/10/08 09:36:07;;;;;;;0.70;0.70;;;;;;;28.51;28.75;99419.97;5091182;28;20199;-70
2023/10/08 09:38:34;;;;;;;1.43;0.90;;;;;;;28.48;27.52;99396.56;5091095;28;20598;-69
2023/10/08 09:41:02;;;;;;;1.80;1.03;;;;;;;28.56;27.15;99407.94;5090465;28;20188;-69
2023/10/08 09:43:29;;;;;;;0.87;0.87;;;;;;;28.57;28.37;99400.88;5091184;28;20195;-70
2023/10/08 09:46:10;;;;;;;0.50;0.50;;;;;;;28.62;28.22;99401.22;5095003;28;20199;-71
2023/10/08 09:48:40;;;;;;;1.10;0.90;;;;;;;28.69;27.36;99399.63;5095310;28;20666;-71
2023/10/08 09:51:12;;;;;;;0.70;0.70;;;;;;;28.72;27.29;99399.31;5094696;28;20629;-71
2023/10/08 09:53:48;;;;;;;0.60;0.60;;;;;;;28.68;26.75;99390.06;5094865;28;20302;-71
2023/10/08 09:56:17;;;;;;;0.50;0.47;;;;;;;28.79;27.61;99392.38;5094757;28;20195;-71
2023/10/08 09:58:45;;;;;;;0.50;0.50;;;;;;;28.91;27.11;99398.19;5095029;28;20574;-71
2023/10/08 10:01:14;;;;;;;1.17;0.90;;;;;;;28.94;27.71;99382.84;5094496;28;20202;-72
2023/10/08 10:03:42;;;;;;;0.63;0.63;;;;;;;29.14;28.22;99397.34;5093308;28;20191;-72
2023/10/08 10:06:19;;;;;;;0.70;0.70;;;;;;;29.14;27.93;99386.78;5094381;28;20195;-73
2023/10/08 10:08:46;;;;;;;0.70;0.70;;;;;;;29.21;27.10;99384.31;5094742;28;20667;-71
2023/10/08 10:11:15;;;;;;;1.50;0.60;;;;;;;29.40;27.45;99383.22;5094345;28;20195;-70
2023/10/08 10:13:44;;;;;;;1.05;0.85;;;;;;;29.42;28.08;99394.44;5094680;28;20655;-72
2023/10/08 10:16:15;;;;;;;0.67;0.67;;;;;;;29.45;27.22;99381.72;5094158;28;20192;-71
2023/10/08 10:18:46;;;;;;;0.97;0.93;;;;;;;29.51;27.95;99380.22;5094702;28;20616;-71
2023/10/08 10:21:35;;;;;;;0.60;0.60;;;;;;;29.53;27.08;99378.25;5094184;28;20195;-71
2023/10/08 10:24:05;;;;;;;0.50;0.50;;;;;;;29.60;27.92;99363.34;5091583;28;20206;-71
2023/10/08 10:26:35;;;;;;;4.80;0.93;;;;;;;29.61;26.92;99365.00;5094123;28;20201;-68
2023/10/08 10:29:26;;;;;;;0.80;0.80;;;;;;;29.48;27.10;99370.81;5094175;28;20203;-72
2023/10/08 10:31:58;;;;;;;2.50;0.75;;;;;;;29.47;28.01;99368.31;5094353;28;20209;-72
2023/10/08 10:34:27;;;;;;;2.50;0.80;;;;;;;29.42;28.52;99354.81;5094119;28;20671;-72
2023/10/08 10:36:56;;;;;;;0.63;0.50;;;;;;;29.42;27.06;99336.31;5094396;28;20206;-70
2023/10/08 10:39:27;;;;;;;0.60;0.60;;;;;;;29.53;28.34;99339.41;5094021;28;20196;-71
2023/10/08 10:41:57;;;;;;;0.40;0.40;;;;;;;29.61;27.23;99335.94;5094501;28;20663;-71
2023/10/08 10:44:24;;;;;;;0.60;0.60;;;;;;;29.63;29.17;99336.59;5093985;28;20675;-72
2023/10/08 10:46:52;;;;;;;0.50;0.50;;;;;;;29.69;27.96;99330.66;5094049;28;20295;-69
2023/10/08 10:49:21;;;;;;;3.42;0.77;;;;;;;29.70;28.53;99332.28;5093700;28;20236;-69
2023/10/08 10:51:52;;;;;;;0.95;0.95;;;;;;;29.66;27.48;99341.56;5088546;28;20196;-71
2023/10/08 10:54:23;;;;;;;1.77;0.73;;;;;;;29.50;27.27;99333.69;5094043;28;20268;-70
2023/10/08 10:57:03;;;;;;;0.93;0.70;;;;;;;29.53;28.54;99335.97;5087606;28;20203;-72
2023/10/08 10:59:36;;;;;;;0.80;0.80;;;;;;;29.62;27.84;99319.94;5093380;28;20261;-68
2023/10/08 11:02:08;;;;;;;1.08;0.50;;;;;;;29.76;27.81;99321.03;5090361;28;20432;-70
2023/10/08 11:04:47;;;;;;;0.68;0.50;;;;;;;29.97;27.57;99312.56;5090054;28;20203;-68
2023/10/08 11:07:15;;;;;;;0.60;0.60;;;;;;;30.01;28.21;99313.88;5089242;28;20203;-68
2023/10/08 11:09:44;;;;;;;0.50;0.50;;;;;;;29.98;27.60;99303.66;5091470;28;20286;-68
2023/10/08 11:12:18;;;;;;;0.40;0.40;;;;;;;29.99;27.35;99316.69;5089502;28;20778;-68
2023/10/08 11:14:47;;;;;;;0.40;0.40;;;;;;;29.95;28.38;99294.22;5089479;28;20235;-68
2023/10/08 11:17:15;;;;;;;0.70;0.60;;;;;;;30.01;28.21;99303.31;5091081;28;20199;-68
2023/10/08 11:19:45;;;;;;;0.60;0.60;;;;;;;29.94;27.86;99266.16;5087042;28;20759;-68
2023/10/08 11:22:16;;;;;;;8.48;0.95;;;;;;;30.09;28.30;99285.56;5090171;28;20203;-68
2023/10/08 11:24:47;;;;;;;0.60;0.60;;;;;;;30.08;27.96;99289.22;5090326;28;20231;-68
2023/10/08 11:27:17;;;;;;;0.55;0.55;;;;;;;29.96;27.97;99264.16;5091431;28;20196;-68
2023/10/08 11:29:56;;;;;;;0.45;0.40;;;;;;;30.02;27.82;99263.47;5089902;28;20206;-67
2023/10/08 11:32:25;;;;;;;0.95;0.50;;;;;;;30.02;28.57;99276.69;5088267;28;20318;-68
2023/10/08 11:34:59;;;;;;;1.45;0.70;;;;;;;30.04;28.09;99277.34;5091484;28;20663;-68
2023/10/08 11:37:30;;;;;;;0.80;0.80;;;;;;;29.92;27.27;99277.91;5091669;28;20204;-68
2023/10/08 11:39:58;;;;;;;0.60;0.57;;;;;;;29.91;27.51;99269.16;5089929;28;20602;-69
2023/10/08 11:42:44;;;;;;;0.50;0.50;;;;;;;29.99;28.22;99274.38;5091181;28;20195;-72
2023/10/08 11:45:23;;;;;;;0.50;0.38;;;;;;;29.96;28.46;99253.59;5088462;28;20291;-68
2023/10/08 11:47:55;;;;;;;1.27;1.17;;;;;;;30.10;27.94;99275.81;5089936;28;20603;-68
2023/10/08 11:50:30;;;;;;;0.68;0.68;;;;;;;30.01;27.96;99261.84;5087791;28;20329;-68
2023/10/08 11:53:05;;;;;;;0.82;0.82;;;;;;;30.03;27.83;99266.94;5086182;28;20607;-68
2023/10/08 11:55:35;;;;;;;0.50;0.50;;;;;;;29.97;28.09;99257.88;5087700;28;20256;-68
2023/10/08 11:58:09;;;;;;;1.98;0.85;;;;;;;29.98;28.33;99251.63;5086150;28;20572;-68